Varney, Kentucky
Current Conditions -  °F | °C
As of 9:35 PM on Thursday 20 Nov 2014 (Local Time) from KPBX Reporting Station
Clear Clear  
Wind Chill: 29°   Ceiling: Unl
Heat Index: 29°   Visibility: 10mi
Dew Point: 17°   Wind: 3mph
Humidity: 61%   Direction: 310°NW
Pressure: 30.2"   Gusts: NA
Location:  37.64°N, 82.49°W
Report Text: KPBX 210235Z AUTO 31003KT 10SM CLR M02/M08 A3020 RMK AO2 T10161082
Loading
Personal Weather Stations






























Interactive Weather Map New forecast layout! Learn more

10-Day Weather Forecast

Advertisements
Track Severe Weather on mobile